Terminal Aerodrome Forecast
Issued by NWS

Home | Current Version | Previous Version | Graphics & Text | Print | Product List | Glossary On
Versions: 1 2 3 4 5 6 7 8 9 10 11 12 13 14 15 16 17 18 19 20 21 22 23
000
FTUS43 KBIS 161729
TAFMOT
TAF
KMOT 161729Z 1618/1718 12016G21KT P6SM OVC007
     FM162000 13015G23KT P6SM OVC010
     FM170000 16011G19KT P6SM BKN120
     FM170500 22009KT P6SM BKN130
     FM171100 28010KT P6SM SCT200=

USA.gov is the U.S. government's official web portal to all federal, state and local government web resources and services.